createdAt,value
2022-10-04T00:00:21.122Z,7.23
2022-10-04T00:02:48.063Z,12.97
2022-10-04T00:05:18.596Z,5.90
2022-10-04T00:07:50.144Z,7.50
2022-10-04T00:10:22.182Z,6.70
2022-10-04T00:12:53.378Z,5.53
2022-10-04T00:15:22.216Z,9.33
2022-10-04T00:18:02.999Z,6.40
2022-10-04T00:20:48.252Z,6.90
2022-10-04T00:23:24.262Z,7.00
2022-10-04T00:25:56.770Z,8.60
2022-10-04T00:28:26.667Z,11.07
2022-10-04T00:31:12.448Z,7.30
2022-10-04T00:33:43.291Z,9.37
2022-10-04T00:36:25.421Z,6.70
2022-10-04T00:39:07.231Z,8.90
2022-10-04T00:41:51.891Z,6.07
2022-10-04T00:44:38.738Z,7.47
2022-10-04T00:47:21.002Z,7.73
2022-10-04T00:49:52.395Z,6.90
2022-10-04T00:52:25.418Z,6.50
2022-10-04T00:54:57.997Z,4.20
2022-10-04T00:57:34.316Z,7.27
2022-10-04T01:00:15.094Z,8.17
2022-10-04T01:03:37.805Z,6.90
2022-10-04T01:06:08.935Z,5.10
2022-10-04T01:08:40.813Z,10.93
2022-10-04T01:11:15.059Z,5.07
2022-10-04T01:13:50.132Z,7.17
2022-10-04T01:16:26.451Z,8.27
2022-10-04T01:18:53.556Z,9.20
2022-10-04T01:21:23.393Z,9.33
2022-10-04T01:23:52.349Z,18.10
2022-10-04T01:26:29.264Z,9.30
2022-10-04T01:29:05.839Z,8.40
2022-10-04T01:31:35.275Z,8.63
2022-10-04T01:34:02.846Z,7.67
2022-10-04T01:36:29.880Z,6.20
2022-10-04T01:38:57.210Z,5.93
2022-10-04T01:41:32.813Z,7.30
2022-10-04T01:44:02.895Z,6.40
2022-10-04T01:46:36.305Z,5.90
2022-10-04T01:49:07.992Z,6.93
2022-10-04T01:51:38.471Z,5.70
2022-10-04T01:54:17.386Z,8.00
2022-10-04T01:57:00.461Z,8.20
2022-10-04T01:59:35.183Z,5.83
2022-10-04T02:02:16.785Z,12.50
2022-10-04T02:04:48.263Z,9.33
2022-10-04T02:07:16.500Z,7.43
2022-10-04T02:09:47.630Z,7.27
2022-10-04T02:12:18.811Z,6.10
2022-10-04T02:14:52.696Z,6.93
2022-10-04T02:17:28.285Z,6.33
2022-10-04T02:19:56.581Z,6.50
2022-10-04T02:22:25.241Z,6.07
2022-10-04T02:24:54.816Z,8.03
2022-10-04T02:27:27.729Z,5.50
2022-10-04T02:30:07.917Z,6.83
2022-10-04T02:32:54.286Z,6.00
2022-10-04T02:35:21.405Z,6.27
2022-10-04T02:37:55.339Z,7.80
2022-10-04T02:40:27.145Z,8.77
2022-10-04T02:43:02.611Z,8.03
2022-10-04T02:45:46.889Z,8.07
2022-10-04T02:48:47.448Z,5.80
2022-10-04T02:51:26.084Z,4.83
2022-10-04T02:54:03.699Z,4.27
2022-10-04T02:56:32.469Z,4.53
2022-10-04T02:59:04.582Z,4.73
2022-10-04T03:02:08.962Z,4.10
2022-10-04T03:04:40.150Z,4.67
2022-10-04T03:07:09.296Z,4.23
2022-10-04T03:09:38.151Z,4.27
2022-10-04T03:12:06.173Z,5.33
2022-10-04T03:14:34.083Z,6.70
2022-10-04T03:17:04.218Z,4.03
2022-10-04T03:19:32.854Z,6.00
2022-10-04T03:22:08.299Z,6.03
2022-10-04T03:24:43.061Z,3.80
2022-10-04T03:27:16.757Z,4.13
2022-10-04T03:29:44.342Z,5.90
2022-10-04T03:32:14.928Z,3.83
2022-10-04T03:34:50.384Z,5.53
2022-10-04T03:37:20.227Z,8.37
2022-10-04T03:39:49.350Z,7.33
2022-10-04T03:42:23.039Z,6.73
2022-10-04T03:44:54.216Z,6.20
2022-10-04T03:47:22.821Z,8.40
2022-10-04T03:49:51.190Z,6.00
2022-10-04T03:52:30.757Z,6.63
2022-10-04T03:55:01.604Z,6.23
2022-10-04T03:57:29.897Z,6.30
2022-10-04T03:59:58.392Z,5.90
2022-10-04T04:02:50.219Z,5.13
2022-10-04T04:05:26.157Z,4.70
2022-10-04T04:08:11.357Z,4.90
2022-10-04T04:10:43.159Z,4.43
2022-10-04T04:13:44.708Z,5.93
2022-10-04T04:16:12.276Z,11.07
2022-10-04T04:18:43.438Z,5.23
2022-10-04T04:21:14.347Z,4.27
2022-10-04T04:23:48.712Z,7.40
2022-10-04T04:26:29.575Z,8.07
2022-10-04T04:29:03.756Z,4.33
2022-10-04T04:31:41.412Z,6.70
2022-10-04T04:34:25.314Z,6.17
2022-10-04T04:36:57.066Z,5.73
2022-10-04T04:39:41.353Z,6.90
2022-10-04T04:42:11.116Z,6.17
2022-10-04T04:44:57.858Z,6.30
2022-10-04T04:47:30.479Z,7.13
2022-10-04T04:50:02.391Z,5.00
2022-10-04T04:52:31.542Z,6.17
2022-10-04T04:54:58.617Z,4.53
2022-10-04T04:57:25.745Z,4.67
2022-10-04T04:59:58.336Z,5.97
2022-10-04T05:02:35.158Z,3.77
2022-10-04T05:05:20.766Z,10.83
2022-10-04T05:07:48.340Z,5.07
2022-10-04T05:10:21.486Z,5.87
2022-10-04T05:12:49.848Z,6.80
2022-10-04T05:15:19.587Z,8.53
2022-10-04T05:17:46.736Z,5.63
2022-10-04T05:20:15.196Z,4.83
2022-10-04T05:22:46.954Z,8.73
2022-10-04T05:25:28.380Z,6.63
2022-10-04T05:27:56.644Z,6.37
2022-10-04T05:30:48.739Z,9.77
2022-10-04T05:33:24.480Z,5.00
2022-10-04T05:36:13.859Z,5.80
2022-10-04T05:38:52.532Z,5.97
2022-10-04T05:41:33.270Z,8.43
2022-10-04T05:44:02.471Z,8.90
2022-10-04T05:46:34.932Z,10.70
2022-10-04T05:49:14.445Z,7.30
2022-10-04T05:52:02.014Z,8.30
2022-10-04T05:54:32.879Z,6.33
2022-10-04T05:57:27.494Z,7.57
2022-10-04T06:00:09.937Z,8.30
2022-10-04T06:02:56.030Z,11.03
2022-10-04T06:05:42.607Z,5.23
2022-10-04T06:08:39.504Z,6.83
2022-10-04T06:11:23.706Z,5.80
2022-10-04T06:14:21.009Z,6.30
2022-10-04T06:17:03.666Z,8.27
2022-10-04T06:19:58.845Z,8.63
2022-10-04T06:22:29.278Z,8.87
2022-10-04T06:25:05.984Z,5.57
2022-10-04T06:27:54.260Z,14.93
2022-10-04T06:30:33.023Z,8.17
2022-10-04T06:33:29.432Z,7.80
2022-10-04T06:36:34.401Z,11.83
2022-10-04T06:39:23.046Z,10.43
2022-10-04T06:42:13.857Z,10.33
2022-10-04T06:44:58.414Z,6.07
2022-10-04T06:47:44.411Z,8.63
2022-10-04T06:50:42.456Z,6.30
2022-10-04T06:53:35.743Z,6.20
2022-10-04T06:56:17.369Z,6.83
2022-10-04T06:58:50.429Z,4.67
2022-10-04T07:01:35.109Z,4.10
2022-10-04T07:05:06.514Z,6.63
2022-10-04T07:07:40.434Z,7.23
2022-10-04T07:10:16.804Z,6.57
2022-10-04T07:12:53.783Z,8.20
2022-10-04T07:15:25.457Z,9.37
2022-10-04T07:17:54.162Z,6.03
2022-10-04T07:20:27.240Z,4.67
2022-10-04T07:23:00.507Z,4.77
2022-10-04T07:25:51.204Z,4.77
2022-10-04T07:28:44.916Z,7.10
2022-10-04T07:31:20.971Z,4.77
2022-10-04T07:33:53.175Z,5.73
2022-10-04T07:36:24.770Z,7.07
2022-10-04T07:39:02.004Z,6.73
2022-10-04T07:41:44.992Z,6.40
2022-10-04T07:44:23.360Z,7.13
2022-10-04T07:47:19.936Z,8.03
2022-10-04T07:49:50.653Z,6.30
2022-10-04T07:52:29.305Z,6.20
2022-10-04T07:54:58.918Z,9.13
2022-10-04T07:57:45.182Z,8.93
2022-10-04T08:00:22.655Z,7.53
2022-10-04T08:03:27.428Z,6.37
2022-10-04T08:06:20.444Z,9.80
2022-10-04T08:09:17.100Z,6.83
2022-10-04T08:12:05.368Z,4.67
2022-10-04T08:14:53.481Z,6.93
2022-10-04T08:17:58.608Z,5.00
2022-10-04T08:20:50.337Z,5.13
2022-10-04T08:23:22.701Z,7.50
2022-10-04T08:25:50.017Z,6.37
2022-10-04T08:28:45.534Z,6.30
2022-10-04T08:31:39.052Z,5.83
2022-10-04T08:34:09.272Z,7.40
2022-10-04T08:37:15.804Z,9.77
2022-10-04T08:39:51.890Z,7.70
2022-10-04T08:42:42.205Z,7.53
2022-10-04T08:45:43.906Z,8.57
2022-10-04T08:48:48.497Z,9.93
2022-10-04T08:51:27.416Z,8.10
2022-10-04T08:54:09.228Z,9.77
2022-10-04T08:57:04.798Z,15.37
2022-10-04T08:59:50.794Z,9.83
2022-10-04T09:02:42.720Z,9.17
2022-10-04T09:05:54.948Z,8.73
2022-10-04T09:08:46.587Z,10.13
2022-10-04T09:11:51.589Z,9.20
2022-10-04T09:14:43.157Z,13.63
2022-10-04T09:17:36.384Z,9.27
2022-10-04T09:20:39.198Z,7.50
2022-10-04T09:23:31.874Z,9.33
2022-10-04T09:26:20.915Z,6.47
2022-10-04T09:29:07.311Z,7.73
2022-10-04T09:32:16.640Z,10.27
2022-10-04T09:34:55.576Z,3.60
2022-10-04T09:37:43.738Z,8.23
2022-10-04T09:40:30.043Z,4.47
2022-10-04T09:43:03.163Z,6.27
2022-10-04T09:45:43.541Z,6.80
2022-10-04T09:48:29.860Z,3.57
2022-10-04T09:51:24.018Z,8.13
2022-10-04T09:54:20.156Z,8.23
2022-10-04T09:57:02.200Z,6.20
2022-10-04T09:59:57.942Z,7.60
2022-10-04T10:02:38.875Z,3.90
2022-10-04T10:05:27.365Z,7.00
2022-10-04T10:08:06.446Z,4.20
2022-10-04T10:11:03.368Z,5.17
2022-10-04T10:13:45.649Z,7.10
2022-10-04T10:16:39.200Z,3.90
2022-10-04T10:19:33.944Z,3.97
2022-10-04T10:22:15.828Z,6.37
2022-10-04T10:25:01.197Z,5.17
2022-10-04T10:27:57.440Z,4.77
2022-10-04T10:30:50.650Z,4.47
2022-10-04T10:33:38.218Z,4.63
2022-10-04T10:36:34.695Z,7.43
2022-10-04T10:39:30.257Z,9.77
2022-10-04T10:42:35.562Z,5.87
2022-10-04T10:45:02.415Z,5.50
2022-10-04T10:47:51.049Z,4.57
2022-10-04T10:50:58.629Z,3.20
2022-10-04T10:53:45.301Z,5.50
2022-10-04T10:56:49.668Z,4.93
2022-10-04T10:59:38.117Z,3.67
2022-10-04T11:02:49.835Z,6.03
2022-10-04T11:05:44.267Z,5.33
2022-10-04T11:08:36.242Z,3.60
2022-10-04T11:11:09.208Z,3.83
2022-10-04T11:13:48.825Z,7.47
2022-10-04T11:16:44.513Z,3.40
2022-10-04T11:19:50.380Z,4.53
2022-10-04T11:22:44.835Z,8.30
2022-10-04T11:25:35.135Z,3.20
2022-10-04T11:28:07.869Z,4.00
2022-10-04T11:30:56.785Z,5.27
2022-10-04T11:33:55.825Z,6.03
2022-10-04T11:36:37.226Z,2.63
2022-10-04T11:39:13.018Z,5.67
2022-10-04T11:41:48.347Z,6.73
2022-10-04T11:44:52.567Z,4.37
2022-10-04T11:47:26.940Z,4.93
2022-10-04T11:50:26.999Z,2.10
2022-10-04T11:53:08.182Z,2.93
2022-10-04T11:55:58.477Z,2.83
2022-10-04T11:58:35.817Z,3.43
2022-10-04T12:01:05.646Z,6.07
2022-10-04T12:03:44.789Z,4.07
2022-10-04T12:06:33.853Z,4.97
2022-10-04T12:09:28.981Z,2.83
2022-10-04T12:12:29.863Z,2.67
2022-10-04T12:15:37.468Z,2.63
2022-10-04T12:18:25.949Z,4.30
2022-10-04T12:21:04.919Z,1.80
2022-10-04T12:23:57.664Z,2.47
2022-10-04T12:26:45.978Z,2.37
2022-10-04T12:29:33.991Z,4.33
2022-10-04T12:32:13.027Z,1.87
2022-10-04T12:34:47.972Z,1.83
2022-10-04T12:37:41.841Z,1.90
2022-10-04T12:40:37.894Z,2.30
2022-10-04T12:43:34.396Z,4.17
2022-10-04T12:46:29.510Z,2.10
2022-10-04T12:49:20.819Z,2.83
2022-10-04T12:52:11.199Z,4.17
2022-10-04T12:55:09.790Z,2.57
2022-10-04T12:57:56.399Z,2.70
2022-10-04T13:00:25.668Z,3.70
2022-10-04T13:03:14.127Z,3.73
2022-10-04T13:05:47.415Z,5.40
2022-10-04T13:09:01.654Z,4.63
2022-10-04T13:11:51.994Z,5.83
2022-10-04T13:14:51.464Z,2.93
2022-10-04T13:17:41.604Z,3.93
2022-10-04T13:20:20.876Z,2.80
2022-10-04T13:23:03.070Z,2.97
2022-10-04T13:26:04.418Z,2.80
2022-10-04T13:28:40.490Z,5.03
2022-10-04T13:31:23.932Z,4.73
2022-10-04T13:34:03.112Z,2.60
2022-10-04T13:36:48.642Z,5.33
2022-10-04T13:39:26.760Z,2.43
2022-10-04T13:42:12.306Z,2.63
2022-10-04T13:45:21.165Z,4.73
2022-10-04T13:48:22.043Z,3.17
2022-10-04T13:51:18.459Z,2.70
2022-10-04T13:54:29.932Z,4.63
2022-10-04T13:57:17.076Z,2.10
2022-10-04T13:59:50.599Z,3.17
2022-10-04T14:02:38.034Z,3.43
2022-10-04T14:05:57.421Z,2.50
2022-10-04T14:08:33.260Z,3.90
2022-10-04T14:11:30.515Z,3.93
2022-10-04T14:14:33.351Z,3.10
2022-10-04T14:17:23.337Z,2.07
2022-10-04T14:20:08.460Z,3.33
2022-10-04T14:22:35.307Z,3.33
2022-10-04T14:25:42.535Z,3.13
2022-10-04T14:28:17.054Z,3.33
2022-10-04T14:31:01.969Z,1.57
2022-10-04T14:34:06.452Z,5.90
2022-10-04T14:37:08.367Z,1.50
2022-10-04T14:39:52.794Z,2.00
2022-10-04T14:42:31.196Z,1.50
2022-10-04T14:45:37.945Z,4.53
2022-10-04T14:48:44.813Z,2.70
2022-10-04T14:51:27.697Z,1.90
2022-10-04T14:54:03.285Z,2.07
2022-10-04T14:56:39.493Z,1.73
2022-10-04T14:59:32.939Z,1.70
2022-10-04T15:01:59.789Z,2.50
2022-10-04T15:05:08.353Z,4.13
2022-10-04T15:07:40.895Z,2.50
2022-10-04T15:10:14.511Z,2.43
2022-10-04T15:13:14.483Z,4.03
2022-10-04T15:15:34.280Z,4.70
2022-10-04T15:18:29.097Z,5.07
2022-10-04T15:21:12.376Z,6.03
2022-10-04T15:24:11.277Z,1.90
2022-10-04T15:27:09.623Z,6.03
2022-10-04T15:30:02.372Z,2.20
2022-10-04T15:32:56.663Z,4.53
2022-10-04T15:35:29.343Z,2.60
2022-10-04T15:38:44.415Z,4.80
2022-10-04T15:41:26.341Z,3.23
2022-10-04T15:44:11.757Z,5.77
2022-10-04T15:46:57.037Z,5.33
2022-10-04T15:49:38.799Z,2.43
2022-10-04T15:52:11.870Z,4.63
2022-10-04T15:54:53.656Z,3.73
2022-10-04T15:57:35.916Z,4.83
2022-10-04T16:00:07.131Z,5.03
2022-10-04T16:03:22.012Z,4.27
2022-10-04T16:05:58.237Z,3.97
2022-10-04T16:08:51.290Z,6.40
2022-10-04T16:11:33.751Z,3.07
2022-10-04T16:14:34.506Z,4.40
2022-10-04T16:17:26.307Z,5.43
2022-10-04T16:20:18.103Z,5.13
2022-10-04T16:23:25.229Z,4.33
2022-10-04T16:25:53.801Z,4.23
2022-10-04T16:28:44.877Z,3.30
2022-10-04T16:31:20.799Z,4.40
2022-10-04T16:34:07.254Z,7.33
2022-10-04T16:36:58.788Z,4.00
2022-10-04T16:39:59.237Z,3.30
2022-10-04T16:42:44.980Z,3.50
2022-10-04T16:45:14.533Z,3.30
2022-10-04T16:47:52.810Z,5.43
2022-10-04T16:50:44.433Z,6.43
2022-10-04T16:53:41.130Z,6.50
2022-10-04T16:56:18.120Z,4.07
2022-10-04T16:58:59.780Z,3.63
2022-10-04T17:01:44.552Z,4.00
2022-10-04T17:04:36.340Z,7.67
2022-10-04T17:07:28.121Z,3.73
2022-10-04T17:10:11.433Z,3.90
2022-10-04T17:13:26.685Z,4.10
2022-10-04T17:16:06.814Z,5.77
2022-10-04T17:18:48.758Z,4.53
2022-10-04T17:21:46.195Z,5.83
2022-10-04T17:24:32.306Z,5.87
2022-10-04T17:27:26.885Z,8.37
2022-10-04T17:30:15.592Z,7.40
2022-10-04T17:32:58.877Z,5.33
2022-10-04T17:36:03.691Z,9.00
2022-10-04T17:38:43.469Z,6.30
2022-10-04T17:41:27.522Z,6.43
2022-10-04T17:44:14.534Z,4.37
2022-10-04T17:47:11.906Z,5.10
2022-10-04T17:50:23.972Z,7.33
2022-10-04T17:53:22.251Z,7.10
2022-10-04T17:55:55.291Z,7.67
2022-10-04T17:58:30.470Z,8.80
2022-10-04T18:01:27.750Z,7.47
2022-10-04T18:04:28.080Z,7.53
2022-10-04T18:07:22.965Z,6.97
2022-10-04T18:09:59.135Z,7.30
2022-10-04T18:12:59.399Z,6.93
2022-10-04T18:15:38.627Z,4.33
2022-10-04T18:18:16.229Z,6.10
2022-10-04T18:21:07.831Z,5.77
2022-10-04T18:23:39.414Z,6.63
2022-10-04T18:26:19.849Z,11.53
2022-10-04T18:28:48.736Z,7.50
2022-10-04T18:31:37.978Z,7.20
2022-10-04T18:34:10.778Z,7.23
2022-10-04T18:37:05.763Z,12.50
2022-10-04T18:39:44.504Z,9.63
2022-10-04T18:42:28.235Z,8.07
2022-10-04T18:45:02.682Z,10.20
2022-10-04T18:47:40.374Z,8.80
2022-10-04T18:50:36.367Z,9.10
2022-10-04T18:53:21.895Z,8.20
2022-10-04T18:56:08.713Z,12.50
2022-10-04T18:59:23.734Z,8.80
2022-10-04T19:01:59.950Z,8.17
2022-10-04T19:04:46.577Z,7.43
2022-10-04T19:07:18.401Z,9.80
2022-10-04T19:09:51.098Z,12.90
2022-10-04T19:12:26.616Z,11.10
2022-10-04T19:15:24.533Z,12.20
2022-10-04T19:18:16.155Z,14.43
2022-10-04T19:21:02.949Z,10.93
2022-10-04T19:23:32.821Z,13.23
2022-10-04T19:26:32.639Z,13.73
2022-10-04T19:29:21.577Z,12.60
2022-10-04T19:31:58.714Z,10.87
2022-10-04T19:34:53.848Z,8.07
2022-10-04T19:38:02.729Z,13.07
2022-10-04T19:41:08.536Z,8.57
2022-10-04T19:44:07.510Z,11.90
2022-10-04T19:46:57.536Z,9.07
2022-10-04T19:49:51.161Z,14.13
2022-10-04T19:52:48.413Z,9.10
2022-10-04T19:55:42.801Z,7.83
2022-10-04T19:58:24.646Z,10.33
2022-10-04T20:00:51.774Z,9.20
2022-10-04T20:03:18.857Z,6.43
2022-10-04T20:05:50.794Z,10.80
2022-10-04T20:09:02.319Z,6.60
2022-10-04T20:11:38.863Z,7.43
2022-10-04T20:14:08.297Z,7.23
2022-10-04T20:16:48.062Z,7.67
2022-10-04T20:19:27.755Z,6.03
2022-10-04T20:21:56.003Z,7.30
2022-10-04T20:24:37.850Z,7.00
2022-10-04T20:27:06.858Z,7.03
2022-10-04T20:29:36.750Z,10.47
2022-10-04T20:32:05.164Z,11.03
2022-10-04T20:34:38.412Z,8.77
2022-10-04T20:37:08.234Z,10.70
2022-10-04T20:39:41.067Z,7.87
2022-10-04T20:42:29.963Z,8.63
2022-10-04T20:45:18.067Z,8.13
2022-10-04T20:47:57.534Z,8.30
2022-10-04T20:50:33.415Z,11.83
2022-10-04T20:53:06.070Z,7.73
2022-10-04T20:55:39.063Z,7.77
2022-10-04T20:58:23.719Z,10.37
2022-10-04T21:00:56.474Z,5.73
2022-10-04T21:03:24.300Z,9.83
2022-10-04T21:06:03.134Z,6.63
2022-10-04T21:08:31.947Z,10.47
2022-10-04T21:11:16.819Z,14.90
2022-10-04T21:14:01.043Z,7.10
2022-10-04T21:16:48.479Z,8.00
2022-10-04T21:19:33.733Z,8.77
2022-10-04T21:22:01.710Z,10.50
2022-10-04T21:25:00.053Z,11.23
2022-10-04T21:27:35.604Z,7.90
2022-10-04T21:30:08.191Z,6.77
2022-10-04T21:32:36.962Z,10.03
2022-10-04T21:35:05.766Z,9.37
2022-10-04T21:37:33.631Z,7.07
2022-10-04T21:40:00.471Z,10.33
2022-10-04T21:42:27.420Z,7.80
2022-10-04T21:44:54.252Z,10.23
2022-10-04T21:47:23.862Z,6.43
2022-10-04T21:49:52.147Z,7.83
2022-10-04T21:52:19.213Z,7.93
2022-10-04T21:54:46.247Z,7.00
2022-10-04T21:57:13.698Z,7.87
2022-10-04T21:59:40.680Z,13.27
2022-10-04T22:02:10.267Z,9.90
2022-10-04T22:04:38.259Z,16.00
2022-10-04T22:07:05.332Z,15.93
2022-10-04T22:09:33.268Z,10.30
2022-10-04T22:12:00.056Z,10.53
2022-10-04T22:14:26.873Z,8.60
2022-10-04T22:16:53.635Z,6.10
2022-10-04T22:19:20.518Z,6.97
2022-10-04T22:21:47.335Z,9.13
2022-10-04T22:24:19.221Z,7.67
2022-10-04T22:26:46.516Z,10.60
2022-10-04T22:29:15.982Z,13.73
2022-10-04T22:31:50.267Z,13.37
2022-10-04T22:34:19.548Z,10.00
2022-10-04T22:36:48.444Z,13.73
2022-10-04T22:39:18.354Z,15.40
2022-10-04T22:41:49.044Z,14.37
2022-10-04T22:44:20.286Z,11.40
2022-10-04T22:46:53.741Z,10.10
2022-10-04T22:49:31.312Z,11.23
2022-10-04T22:52:00.611Z,10.30
2022-10-04T22:54:32.473Z,6.53
2022-10-04T22:56:59.936Z,7.60
2022-10-04T22:59:39.746Z,6.73
2022-10-04T23:02:19.646Z,6.47
2022-10-04T23:04:52.111Z,13.47
2022-10-04T23:07:19.434Z,8.63
2022-10-04T23:09:46.530Z,6.47
2022-10-04T23:12:13.524Z,6.53
2022-10-04T23:14:41.022Z,10.53
2022-10-04T23:17:13.788Z,5.93
2022-10-04T23:19:40.579Z,6.33
2022-10-04T23:22:14.724Z,5.80
2022-10-04T23:24:41.640Z,5.90
2022-10-04T23:27:18.168Z,6.40
2022-10-04T23:29:46.758Z,5.70
2022-10-04T23:32:15.815Z,11.20
2022-10-04T23:34:46.151Z,7.83
2022-10-04T23:37:25.409Z,6.40
2022-10-04T23:39:52.262Z,6.10
2022-10-04T23:42:30.275Z,6.93
2022-10-04T23:44:58.567Z,12.50
2022-10-04T23:47:32.929Z,13.83
2022-10-04T23:49:59.916Z,9.07
2022-10-04T23:52:39.839Z,8.33
2022-10-04T23:55:29.105Z,9.30
2022-10-04T23:57:56.998Z,14.37
